Time;durP1;ratioP1;P1;durP2;ratioP2;P2;SDS_P1;SDS_P2;PMS_P1;PMS_P2;Temp;Humidity;BMP_temperature;BMP_pressure;BME280_temperature;BME280_humidity;BME280_pressure;Samples;Min_cycle;Max_cycle;Signal;HPM_P1;HPM_P2
2024/03/09 00:00:32;;;;;;;21.00;11.30;;;;;;;-3.00;68.23;99461.45;79166;1295;3013259;-59
2024/03/09 00:03:00;;;;;;;24.40;11.90;;;;;;;-3.09;68.25;99463.73;78215;1299;3056044;-61
2024/03/09 00:05:27;;;;;;;29.90;14.10;;;;;;;-3.06;68.33;99457.37;79350;1299;3012440;-59
2024/03/09 00:07:55;;;;;;;28.80;14.10;;;;;;;-3.11;68.30;99457.91;79422;1299;3011901;-60
2024/03/09 00:10:25;;;;;;;22.90;11.50;;;;;;;-3.09;68.34;99452.42;78084;1301;3053624;-61
2024/03/09 00:12:53;;;;;;;30.70;13.40;;;;;;;-3.09;68.55;99452.76;79310;1298;3013335;-64
2024/03/09 00:15:21;;;;;;;25.20;13.70;;;;;;;-3.18;68.95;99446.30;79811;1296;3013127;-61
2024/03/09 00:17:53;;;;;;;24.10;12.00;;;;;;;-3.18;69.20;99439.61;78171;1301;3056674;-62
2024/03/09 00:20:23;;;;;;;26.50;12.50;;;;;;;-3.10;68.84;99443.86;79217;1300;3011628;-62
2024/03/09 00:22:55;;;;;;;30.20;13.50;;;;;;;-3.10;68.68;99441.10;78216;1300;3053149;-62
2024/03/09 00:25:22;;;;;;;30.90;13.40;;;;;;;-3.08;68.78;99441.96;79173;1295;3011715;-61
2024/03/09 00:27:52;;;;;;;20.30;11.60;;;;;;;-3.03;68.61;99446.21;78014;1300;3053263;-63
2024/03/09 00:30:22;;;;;;;30.40;14.70;;;;;;;-2.98;68.29;99441.39;79702;1300;3013191;-60
2024/03/09 00:32:53;;;;;;;27.80;14.00;;;;;;;-3.13;68.67;99441.13;78109;1301;3068509;-60
2024/03/09 00:35:24;;;;;;;32.90;15.60;;;;;;;-3.14;68.54;99435.66;79151;1301;3011912;-61
2024/03/09 00:37:52;;;;;;;26.60;13.50;;;;;;;-3.08;68.81;99439.05;78344;1296;3056710;-61
2024/03/09 00:40:19;;;;;;;27.00;12.40;;;;;;;-3.15;68.95;99431.73;79072;1296;3012910;-60
2024/03/09 00:42:45;;;;;;;31.10;14.70;;;;;;;-3.10;68.89;99436.66;79578;1301;3011488;-61
2024/03/09 00:45:15;;;;;;;26.40;12.00;;;;;;;-3.03;68.41;99431.64;78029;1301;3028271;-60
2024/03/09 00:47:46;;;;;;;24.00;12.20;;;;;;;-3.05;68.28;99429.25;79178;1298;3012624;-60
2024/03/09 00:50:15;;;;;;;22.20;12.60;;;;;;;-3.07;68.48;99427.73;78144;1300;3069458;-62
2024/03/09 00:52:42;;;;;;;31.90;14.00;;;;;;;-3.06;68.37;99430.98;79398;1299;3011656;-61
2024/03/09 00:55:15;;;;;;;25.00;11.60;;;;;;;-3.17;68.81;99424.53;79430;1296;3011632;-61
2024/03/09 00:57:47;;;;;;;28.30;12.90;;;;;;;-3.06;68.68;99426.19;78273;1299;3052600;-59
2024/03/09 01:00:18;;;;;;;26.50;13.20;;;;;;;-3.04;68.46;99423.09;79364;1300;3011943;-64
2024/03/09 01:02:48;;;;;;;24.10;12.10;;;;;;;-3.07;68.71;99426.70;78469;1300;3052207;-60
2024/03/09 01:05:19;;;;;;;27.70;12.50;;;;;;;-3.08;68.64;99419.16;80034;1298;3011941;-62
2024/03/09 01:07:47;;;;;;;32.90;15.00;;;;;;;-3.02;68.32;99422.73;78181;1301;3068763;-63
2024/03/09 01:10:13;;;;;;;30.00;14.10;;;;;;;-3.12;68.37;99421.92;80077;1298;3013283;-63
2024/03/09 01:12:40;;;;;;;23.10;11.80;;;;;;;-3.06;68.41;99419.15;79443;1299;3012238;-60
2024/03/09 01:15:11;;;;;;;28.00;13.60;;;;;;;-3.02;67.86;99419.64;78181;1296;3026256;-63
2024/03/09 01:17:38;;;;;;;33.10;15.10;;;;;;;-2.97;67.82;99414.64;79566;1295;3013384;-60
2024/03/09 01:20:08;;;;;;;31.50;13.00;;;;;;;-2.85;66.96;99410.96;78757;1295;3011782;-60
2024/03/09 01:22:35;;;;;;;33.10;14.70;;;;;;;-2.84;66.64;99406.16;79379;1300;3013489;-61
2024/03/09 01:25:02;;;;;;;27.00;12.60;;;;;;;-2.76;66.32;99411.76;79558;1301;3013134;-61
2024/03/09 01:27:30;;;;;;;31.00;13.20;;;;;;;-2.67;65.81;99407.06;78141;1298;3057235;-59
2024/03/09 01:29:59;;;;;;;26.30;12.50;;;;;;;-2.60;65.43;99397.06;79376;1296;3013110;-61
2024/03/09 01:32:27;;;;;;;26.80;10.30;;;;;;;-2.48;64.88;99404.52;79390;1295;3013745;-62
2024/03/09 01:34:56;;;;;;;21.90;8.60;;;;;;;-2.37;64.38;99399.96;78152;1300;3053506;-61
2024/03/09 01:37:22;;;;;;;20.90;9.70;;;;;;;-2.35;64.05;99397.02;79722;1299;3013234;-60
2024/03/09 01:39:50;;;;;;;25.20;11.30;;;;;;;-2.30;63.95;99394.39;79683;1295;3011776;-60
2024/03/09 01:42:21;;;;;;;19.20;8.70;;;;;;;-2.22;63.78;99389.88;78203;1301;3056496;-62
2024/03/09 01:44:48;;;;;;;23.90;11.10;;;;;;;-2.13;63.31;99393.02;79274;1296;3013639;-61
2024/03/09 01:47:26;;;;;;;22.90;10.30;;;;;;;-2.11;63.08;99389.23;79226;1301;3013910;-64
2024/03/09 01:49:56;;;;;;;16.70;8.40;;;;;;;-2.10;63.10;99387.85;78152;1301;3050952;-60
2024/03/09 01:52:25;;;;;;;22.20;9.50;;;;;;;-2.01;62.44;99395.31;79315;1301;3013411;-60
2024/03/09 01:54:54;;;;;;;21.00;10.10;;;;;;;-2.02;62.30;99388.80;78277;1299;3050981;-61
2024/03/09 01:57:20;;;;;;;11.70;6.60;;;;;;;-2.00;62.43;99388.43;79200;1296;3011594;-61
2024/03/09 01:59:49;;;;;;;16.80;8.00;;;;;;;-1.91;61.86;99390.39;79394;1295;3011629;-61
2024/03/09 02:02:17;;;;;;;18.00;9.30;;;;;;;-1.94;61.89;99386.48;78221;1295;3048080;-64
2024/03/09 02:04:44;;;;;;;18.00;10.20;;;;;;;-1.96;62.03;99387.53;79302;1295;3012981;-62
2024/03/09 02:07:14;;;;;;;20.80;9.30;;;;;;;-1.85;61.75;99398.40;79989;1298;3011359;-60
2024/03/09 02:09:46;;;;;;;20.10;10.20;;;;;;;-1.76;61.36;99390.23;78159;1300;3051356;-61
2024/03/09 02:12:13;;;;;;;12.20;6.20;;;;;;;-1.78;61.29;99395.40;79613;1295;3011700;-63
2024/03/09 02:14:43;;;;;;;22.20;8.70;;;;;;;-1.73;61.51;99385.20;78458;1295;3026103;-62
2024/03/09 02:17:11;;;;;;;26.50;10.90;;;;;;;-1.71;61.65;99390.17;79263;1300;3011649;-62
2024/03/09 02:19:40;;;;;;;22.20;10.40;;;;;;;-1.70;61.67;99397.54;78151;1301;3026397;-60
2024/03/09 02:22:09;;;;;;;19.20;10.00;;;;;;;-1.64;61.80;99391.98;79383;1296;3013951;-60
2024/03/09 02:24:42;;;;;;;21.70;9.40;;;;;;;-1.61;61.92;99393.14;78641;1301;3011879;-62
2024/03/09 02:27:09;;;;;;;25.80;10.70;;;;;;;-1.63;61.79;99398.84;79246;1300;3011630;-63
2024/03/09 02:29:38;;;;;;;29.20;10.90;;;;;;;-1.56;61.52;99396.52;78145;1300;3027601;-60
2024/03/09 02:32:04;;;;;;;26.20;10.40;;;;;;;-1.55;61.26;99393.23;79513;1301;3013496;-62
2024/03/09 02:34:31;;;;;;;23.70;11.20;;;;;;;-1.47;61.16;99393.83;79386;1301;3011521;-59
2024/03/09 02:36:59;;;;;;;32.20;11.60;;;;;;;-1.51;60.91;99389.75;78207;1296;3049391;-62
2024/03/09 02:39:27;;;;;;;26.50;12.30;;;;;;;-1.53;60.91;99387.20;79327;1301;3013565;-60
2024/03/09 02:41:58;;;;;;;31.90;12.80;;;;;;;-1.46;60.62;99391.92;79671;1299;3011718;-61
2024/03/09 02:44:26;;;;;;;24.70;11.30;;;;;;;-1.40;60.31;99393.73;78050;1301;3051164;-59
2024/03/09 02:46:53;;;;;;;29.30;12.40;;;;;;;-1.34;59.93;99385.23;79459;1298;3013111;-59
2024/03/09 02:49:20;;;;;;;27.70;11.90;;;;;;;-1.32;60.00;99386.93;79774;1300;3011687;-62
2024/03/09 02:51:48;;;;;;;24.60;11.60;;;;;;;-1.27;59.60;99385.50;78369;1298;3048853;-63
2024/03/09 02:54:15;;;;;;;27.50;11.10;;;;;;;-1.24;59.56;99381.33;79423;1301;3018451;-60
2024/03/09 02:56:41;;;;;;;27.10;13.60;;;;;;;-1.06;58.70;99383.14;79422;1301;3013687;-60
2024/03/09 02:59:09;;;;;;;36.70;14.40;;;;;;;-1.15;58.61;99382.41;78357;1296;3027042;-62
2024/03/09 03:01:36;;;;;;;27.40;12.60;;;;;;;-1.12;58.73;99376.68;79491;1298;3018890;-60
2024/03/09 03:04:03;;;;;;;32.20;14.60;;;;;;;-1.05;58.53;99379.66;79337;1301;3011406;-61
2024/03/09 03:06:36;;;;;;;31.50;14.30;;;;;;;-0.96;58.21;99379.37;78206;1295;3028665;-62
2024/03/09 03:09:16;;;;;;;30.40;14.60;;;;;;;-1.06;58.25;99372.31;79341;1295;3011750;-62
2024/03/09 03:11:43;;;;;;;26.80;13.30;;;;;;;-1.11;58.49;99376.15;78726;1295;3049480;-61
2024/03/09 03:14:10;;;;;;;28.50;14.40;;;;;;;-1.08;58.41;99369.23;80039;1300;3013829;-61
2024/03/09 03:16:37;;;;;;;36.60;14.10;;;;;;;-0.99;58.31;99372.71;79209;1296;3013280;-59
2024/03/09 03:19:06;;;;;;;29.10;12.70;;;;;;;-0.91;57.92;99372.77;78381;1296;3027965;-61
2024/03/09 03:21:41;;;;;;;25.50;12.00;;;;;;;-1.00;57.92;99374.97;79695;1295;3012964;-61
2024/03/09 03:24:09;;;;;;;23.90;12.20;;;;;;;-0.94;57.97;99361.98;78408;1301;3054260;-62
2024/03/09 03:26:36;;;;;;;25.70;12.10;;;;;;;-1.00;58.05;99374.11;79660;1299;3013672;-59
2024/03/09 03:29:03;;;;;;;23.30;10.90;;;;;;;-1.02;58.25;99371.39;79578;1299;3011927;-59
2024/03/09 03:31:31;;;;;;;25.40;12.20;;;;;;;-0.93;57.91;99361.27;78288;1308;3026057;-59
2024/03/09 03:33:58;;;;;;;28.50;12.60;;;;;;;-0.98;57.80;99366.17;79596;1300;3013198;-61
2024/03/09 03:36:25;;;;;;;29.40;13.40;;;;;;;-0.92;57.82;99356.45;79311;1295;3012815;-59
2024/03/09 03:38:54;;;;;;;30.20;13.20;;;;;;;-0.98;58.01;99360.15;78086;1295;3027603;-61
2024/03/09 03:41:23;;;;;;;29.00;13.30;;;;;;;-0.93;58.15;99362.98;79573;1301;3013228;-60
2024/03/09 03:43:54;;;;;;;30.80;12.60;;;;;;;-0.96;58.10;99362.52;79135;1301;3013590;-60
2024/03/09 03:46:21;;;;;;;28.30;12.80;;;;;;;-1.00;58.11;99367.56;79472;1301;3012591;-59
2024/03/09 03:48:47;;;;;;;29.90;12.90;;;;;;;-1.10;58.40;99365.48;79539;1295;3011628;-62
2024/03/09 03:51:15;;;;;;;22.80;10.90;;;;;;;-1.04;58.46;99365.55;78111;1295;3056526;-60
2024/03/09 03:53:43;;;;;;;21.80;10.40;;;;;;;-0.97;58.18;99360.98;79336;1298;3018725;-61
2024/03/09 03:56:10;;;;;;;31.60;14.20;;;;;;;-0.98;58.19;99363.93;79208;1296;3011850;-61
2024/03/09 03:58:38;;;;;;;32.70;14.80;;;;;;;-1.10;58.24;99363.77;78303;1308;3052617;-62
2024/03/09 04:01:06;;;;;;;38.70;15.70;;;;;;;-1.24;58.84;99363.27;79291;1298;3020558;-62
2024/03/09 04:03:32;;;;;;;34.80;15.30;;;;;;;-1.31;59.38;99363.20;79403;1296;3011727;-61
2024/03/09 04:06:02;;;;;;;37.10;15.00;;;;;;;-1.37;59.15;99364.82;78507;1296;3026332;-61
2024/03/09 04:08:29;;;;;;;33.60;14.30;;;;;;;-1.43;59.33;99366.64;79469;1296;3013176;-61
2024/03/09 04:10:55;;;;;;;33.70;14.60;;;;;;;-1.53;59.86;99368.13;79934;1298;3011409;-61
2024/03/09 04:13:24;;;;;;;27.10;12.80;;;;;;;-1.58;60.22;99366.13;78792;1298;3051672;-61
2024/03/09 04:15:52;;;;;;;33.60;13.90;;;;;;;-1.57;60.24;99364.23;79602;1298;3013421;-61
2024/03/09 04:18:21;;;;;;;35.90;14.40;;;;;;;-1.58;60.37;99368.54;79573;1298;3011926;-61
2024/03/09 04:20:49;;;;;;;27.90;13.80;;;;;;;-1.69;60.68;99368.52;78202;1300;3055175;-61
2024/03/09 04:23:16;;;;;;;39.70;16.60;;;;;;;-1.78;61.12;99368.61;79335;1296;3013306;-58
2024/03/09 04:25:44;;;;;;;30.30;13.80;;;;;;;-1.73;60.94;99367.02;79272;1300;3011885;-60
2024/03/09 04:28:16;;;;;;;28.00;13.50;;;;;;;-1.68;60.75;99372.10;78310;1298;3052434;-60
2024/03/09 04:30:43;;;;;;;35.30;14.60;;;;;;;-1.72;60.81;99371.29;80197;1299;3011488;-59
2024/03/09 04:33:11;;;;;;;34.80;15.30;;;;;;;-1.66;60.65;99372.77;78793;1295;3026340;-58
2024/03/09 04:35:41;;;;;;;43.40;15.90;;;;;;;-1.64;60.49;99375.84;79403;1295;3019001;-59
2024/03/09 04:38:10;;;;;;;42.10;16.40;;;;;;;-1.63;60.61;99377.03;79473;1296;3011605;-60
2024/03/09 04:40:37;;;;;;;37.90;16.00;;;;;;;-1.82;61.04;99378.28;79397;1297;3013700;-62
2024/03/09 04:43:04;;;;;;;42.30;17.40;;;;;;;-1.74;60.81;99378.53;80342;1300;3011932;-64
2024/03/09 04:45:33;;;;;;;45.00;18.10;;;;;;;-1.80;61.13;99379.96;78611;1295;3052697;-61
2024/03/09 04:47:59;;;;;;;40.50;16.90;;;;;;;-1.73;60.79;99379.54;79531;1300;3012736;-61
2024/03/09 04:50:26;;;;;;;37.80;16.50;;;;;;;-1.65;60.65;99380.14;79855;1298;3011870;-61
2024/03/09 04:52:55;;;;;;;48.90;18.00;;;;;;;-1.40;60.21;99382.75;78559;1296;3056810;-62
2024/03/09 04:55:23;;;;;;;37.40;16.80;;;;;;;-1.45;60.20;99382.80;79768;1295;3013418;-59
2024/03/09 04:57:50;;;;;;;31.90;14.30;;;;;;;-1.60;60.85;99388.49;79625;1300;3013121;-65
2024/03/09 05:00:18;;;;;;;38.60;16.40;;;;;;;-1.45;60.30;99392.59;78038;1300;3052765;-61
2024/03/09 05:02:45;;;;;;;37.40;17.10;;;;;;;-1.36;59.99;99391.95;79546;1300;3018626;-60
2024/03/09 05:05:14;;;;;;;37.80;17.40;;;;;;;-1.43;59.91;99397.06;79614;1301;3011621;-60
2024/03/09 05:07:43;;;;;;;35.40;16.70;;;;;;;-1.60;60.61;99398.29;78529;1298;3057284;-61
2024/03/09 05:10:10;;;;;;;35.10;16.00;;;;;;;-1.61;60.60;99398.98;79938;1295;3012909;-60
2024/03/09 05:12:37;;;;;;;37.20;15.50;;;;;;;-1.41;60.22;99403.88;79517;1298;3011876;-63
2024/03/09 05:15:06;;;;;;;37.70;17.40;;;;;;;-1.30;59.81;99406.33;78227;1298;3051898;-62
2024/03/09 05:17:33;;;;;;;45.20;18.10;;;;;;;-1.31;59.86;99407.02;79759;1298;3013890;-58
2024/03/09 05:20:11;;;;;;;38.10;17.00;;;;;;;-1.30;59.89;99408.73;79445;1298;3011237;-63
2024/03/09 05:22:39;;;;;;;40.80;17.50;;;;;;;-1.26;59.61;99411.25;78146;1298;3056701;-58
2024/03/09 05:25:10;;;;;;;42.20;18.70;;;;;;;-1.06;58.98;99420.27;80057;1295;3018493;-59
2024/03/09 05:27:42;;;;;;;47.30;18.80;;;;;;;-0.84;58.10;99416.68;78567;1308;3049359;-59
2024/03/09 05:30:13;;;;;;;50.00;18.80;;;;;;;-0.75;57.75;99419.30;79589;1295;3011556;-60
2024/03/09 05:32:54;;;;;;;55.90;19.60;;;;;;;-0.57;57.17;99417.66;78107;1296;3052546;-65
2024/03/09 05:35:28;;;;;;;42.60;19.30;;;;;;;-0.50;57.11;99417.20;78246;1295;3069574;-61
2024/03/09 05:37:55;;;;;;;47.80;19.90;;;;;;;-0.36;56.74;99419.38;79579;1302;3013110;-60
2024/03/09 05:40:28;;;;;;;46.60;20.30;;;;;;;-0.25;56.24;99417.98;78299;1295;3056903;-59
2024/03/09 05:42:56;;;;;;;47.40;17.20;;;;;;;-0.17;55.92;99420.41;79386;1295;3011949;-62
2024/03/09 05:45:23;;;;;;;34.80;16.60;;;;;;;0.03;55.46;99422.48;78413;1301;3052620;-61
2024/03/09 05:47:55;;;;;;;42.00;17.70;;;;;;;0.17;55.04;99418.61;79414;1298;3013251;-61
2024/03/09 05:50:28;;;;;;;35.20;18.10;;;;;;;0.27;54.84;99420.48;78549;1300;3052170;-61
2024/03/09 05:52:57;;;;;;;36.70;15.70;;;;;;;0.41;54.48;99422.96;80012;1295;3011685;-61
2024/03/09 05:55:26;;;;;;;37.50;14.90;;;;;;;0.55;54.48;99421.65;78423;1297;3050322;-62
2024/03/09 05:57:54;;;;;;;36.70;15.80;;;;;;;0.65;54.10;99419.02;79476;1300;3014008;-59
2024/03/09 06:00:31;;;;;;;35.90;16.30;;;;;;;0.67;53.94;99419.33;79556;1302;3011939;-61
2024/03/09 06:03:01;;;;;;;40.10;17.10;;;;;;;0.76;53.60;99424.67;78312;1301;3050067;-60
2024/03/09 06:05:28;;;;;;;36.60;15.40;;;;;;;0.86;53.82;99424.48;80338;1298;3013243;-60
2024/03/09 06:07:57;;;;;;;34.40;15.60;;;;;;;0.93;53.39;99423.27;79757;1295;3013490;-63
2024/03/09 06:10:24;;;;;;;43.60;16.20;;;;;;;1.03;53.45;99429.62;80017;1301;3013730;-62
2024/03/09 06:12:54;;;;;;;38.00;15.90;;;;;;;1.16;53.07;99425.16;80385;1299;3013227;-60
2024/03/09 06:15:23;;;;;;;38.70;16.70;;;;;;;1.17;53.28;99431.34;78323;1295;3051084;-63
2024/03/09 06:17:53;;;;;;;30.40;14.60;;;;;;;1.31;52.97;99427.76;79726;1295;3013132;-62
2024/03/09 06:20:21;;;;;;;37.30;15.60;;;;;;;1.37;52.99;99434.36;79184;1300;3052528;-63
2024/03/09 06:22:48;;;;;;;34.40;14.50;;;;;;;1.47;53.06;99429.98;79632;1295;3013129;-62
2024/03/09 06:25:25;;;;;;;30.00;15.00;;;;;;;1.58;52.56;99426.42;79777;1298;3013048;-60
2024/03/09 06:27:54;;;;;;;35.40;15.70;;;;;;;1.66;52.77;99430.55;78596;1296;3055731;-59
2024/03/09 06:30:22;;;;;;;34.60;14.90;;;;;;;1.76;52.79;99430.66;79840;1296;3014959;-60
2024/03/09 06:32:53;;;;;;;34.80;15.60;;;;;;;1.84;52.58;99428.91;79224;1295;3011641;-62
2024/03/09 06:35:20;;;;;;;33.60;15.40;;;;;;;1.94;52.57;99431.23;79670;1299;3013679;-60
2024/03/09 06:37:56;;;;;;;30.10;14.00;;;;;;;1.95;52.58;99438.81;79917;1295;3011855;-60
2024/03/09 06:40:25;;;;;;;35.10;14.60;;;;;;;1.99;52.43;99434.20;78531;1295;3067603;-63
2024/03/09 06:42:55;;;;;;;43.20;16.00;;;;;;;2.10;52.51;99432.02;79551;1300;3012929;-63
2024/03/09 06:45:24;;;;;;;36.50;16.30;;;;;;;2.20;52.17;99429.69;78380;1300;3047386;-62
2024/03/09 06:47:51;;;;;;;34.10;15.80;;;;;;;2.22;52.15;99424.96;79559;1296;3013601;-63
2024/03/09 06:50:17;;;;;;;33.60;16.30;;;;;;;2.29;52.01;99428.23;79954;1295;3011624;-61
2024/03/09 06:52:46;;;;;;;32.60;15.40;;;;;;;2.39;52.18;99432.11;78568;1295;3050691;-62
2024/03/09 06:55:16;;;;;;;37.20;15.50;;;;;;;2.53;52.04;99429.64;79616;1301;3014507;-63
2024/03/09 06:57:46;;;;;;;37.40;15.00;;;;;;;2.66;51.65;99431.85;78900;1295;3056590;-62
2024/03/09 07:00:17;;;;;;;31.10;14.90;;;;;;;2.71;51.54;99434.67;79553;1295;3011954;-60
2024/03/09 07:02:44;;;;;;;29.60;14.50;;;;;;;2.66;51.62;99437.59;78123;1300;3052780;-60
2024/03/09 07:05:12;;;;;;;33.30;14.70;;;;;;;2.85;51.34;99436.52;79642;1297;3012842;-59
2024/03/09 07:07:39;;;;;;;33.40;14.90;;;;;;;3.06;51.13;99438.49;79444;1301;3011630;-61
2024/03/09 07:10:09;;;;;;;30.50;14.10;;;;;;;3.13;50.53;99441.56;78326;1295;3068458;-62
2024/03/09 07:12:42;;;;;;;30.40;14.10;;;;;;;3.14;50.51;99443.77;79547;1295;3012886;-60
2024/03/09 07:15:15;;;;;;;;;;;;;;;3.21;50.36;99442.00;78112;1300;3056193;-61
2024/03/09 07:17:45;;;;;;;38.10;15.80;;;;;;;3.27;50.37;99441.16;79318;1295;3011799;-62
2024/03/09 07:20:13;;;;;;;34.70;14.90;;;;;;;3.33;50.08;99443.73;78580;1299;3052590;-62
2024/03/09 07:22:43;;;;;;;42.50;19.00;;;;;;;3.10;50.31;99444.95;79637;1298;3012853;-62
2024/03/09 07:25:13;;;;;;;50.70;23.40;;;;;;;3.04;50.76;99447.72;78436;1301;3052681;-61
2024/03/09 07:27:41;;;;;;;42.20;21.30;;;;;;;3.12;50.82;99445.23;79496;1301;3013579;-63
2024/03/09 07:30:11;;;;;;;59.50;23.70;;;;;;;3.15;50.59;99445.48;79436;1295;3013077;-61
2024/03/09 07:32:43;;;;;;;65.80;24.90;;;;;;;3.22;50.54;99446.83;78056;1295;3048581;-61
2024/03/09 07:35:16;;;;;;;59.90;26.10;;;;;;;3.17;50.69;99450.10;79673;1298;3013687;-62
2024/03/09 07:37:48;;;;;;;65.30;26.20;;;;;;;3.35;50.14;99450.91;78980;1295;3050959;-60
2024/03/09 07:40:16;;;;;;;69.90;26.70;;;;;;;3.52;49.91;99447.64;80009;1295;3013579;-61
2024/03/09 07:42:44;;;;;;;68.30;25.60;;;;;;;3.63;49.46;99445.70;78337;1301;3052108;-60
2024/03/09 07:45:13;;;;;;;62.20;26.60;;;;;;;3.69;49.49;99445.52;79597;1299;3013570;-62
2024/03/09 07:47:41;;;;;;;58.50;24.70;;;;;;;3.90;49.53;99441.02;79620;1295;3013196;-62
2024/03/09 07:50:14;;;;;;;57.70;26.40;;;;;;;4.03;49.04;99444.55;78339;1295;3050204;-59
2024/03/09 07:52:42;;;;;;;61.50;26.80;;;;;;;4.14;48.76;99446.61;79391;1295;3011376;-63
2024/03/09 07:55:11;;;;;;;55.40;24.10;;;;;;;4.11;48.65;99449.51;78314;1300;3050064;-60
2024/03/09 07:57:40;;;;;;;54.00;24.50;;;;;;;4.08;48.66;99447.52;79480;1295;3013550;-60
2024/03/09 08:00:22;;;;;;;59.30;23.50;;;;;;;4.14;48.54;99449.38;78874;1300;3011693;-60
2024/03/09 08:02:50;;;;;;;35.40;17.40;;;;;;;4.17;48.42;99448.06;78614;1296;3069572;-62
2024/03/09 08:05:19;;;;;;;45.70;19.10;;;;;;;4.14;48.28;99450.77;79724;1298;3013517;-60
2024/03/09 08:07:46;;;;;;;36.30;17.10;;;;;;;4.36;48.36;99447.60;79640;1300;3011784;-63
2024/03/09 08:10:18;;;;;;;37.90;17.00;;;;;;;4.43;47.96;99447.35;78265;1301;3053546;-64
2024/03/09 08:12:46;;;;;;;34.00;16.20;;;;;;;4.47;47.67;99447.72;79378;1296;3012019;-64
2024/03/09 08:15:14;;;;;;;30.30;15.10;;;;;;;4.28;47.80;99454.10;78038;1301;3053849;-60
2024/03/09 08:17:54;;;;;;;39.00;18.70;;;;;;;4.30;47.93;99454.58;79973;1301;3011522;-61
2024/03/09 08:20:22;;;;;;;40.00;17.80;;;;;;;4.44;47.77;99449.94;78179;1299;3051554;-63
2024/03/09 08:22:49;;;;;;;36.10;15.70;;;;;;;4.59;47.70;99449.91;79920;1295;3012964;-61
2024/03/09 08:25:17;;;;;;;38.20;15.90;;;;;;;4.67;47.45;99450.80;79507;1295;3013038;-59
2024/03/09 08:27:46;;;;;;;35.30;15.90;;;;;;;4.88;47.24;99450.58;78102;1299;3050387;-59
2024/03/09 08:30:17;;;;;;;31.90;15.00;;;;;;;4.90;46.92;99451.35;79422;1300;3014674;-62
2024/03/09 08:32:52;;;;;;;32.00;15.90;;;;;;;5.05;46.69;99452.72;78541;1295;3068393;-63
2024/03/09 08:35:21;;;;;;;36.10;16.10;;;;;;;5.25;46.39;99458.19;79048;1295;3011415;-61
2024/03/09 08:37:48;;;;;;;33.80;16.10;;;;;;;5.30;46.02;99460.45;79631;1295;3013082;-62
2024/03/09 08:40:17;;;;;;;36.00;17.00;;;;;;;5.33;46.07;99459.79;79431;1301;3013222;-60
2024/03/09 08:42:52;;;;;;;38.70;18.00;;;;;;;5.31;45.98;99460.23;77996;1299;3053475;-61
2024/03/09 08:45:24;;;;;;;33.00;17.20;;;;;;;5.18;46.27;99463.65;79129;1301;3011898;-61
2024/03/09 08:47:52;;;;;;;38.70;16.60;;;;;;;5.23;46.47;99458.27;79862;1295;3011251;-62
2024/03/09 08:50:21;;;;;;;34.40;16.90;;;;;;;5.18;46.56;99461.61;78801;1301;3052417;-61
2024/03/09 08:52:49;;;;;;;41.90;17.60;;;;;;;5.36;46.35;99462.82;79623;1295;3013532;-63
2024/03/09 08:55:16;;;;;;;35.90;17.00;;;;;;;5.28;45.99;99463.46;79884;1295;3011422;-62
2024/03/09 08:57:48;;;;;;;41.60;16.40;;;;;;;5.30;46.24;99463.20;78389;1300;3055929;-59
2024/03/09 09:00:19;;;;;;;38.10;15.30;;;;;;;5.16;46.52;99464.80;79306;1295;3011669;-60
2024/03/09 09:02:47;;;;;;;37.40;16.10;;;;;;;5.03;47.19;99458.70;78149;1298;3053267;-59
2024/03/09 09:05:14;;;;;;;38.00;15.70;;;;;;;5.14;47.15;99457.05;79517;1300;3012812;-62
2024/03/09 09:07:41;;;;;;;40.10;17.60;;;;;;;5.16;47.12;99460.27;79856;1301;3011882;-62
2024/03/09 09:10:14;;;;;;;30.90;16.00;;;;;;;5.46;47.01;99457.54;78228;1301;3068333;-59
2024/03/09 09:12:49;;;;;;;46.60;18.70;;;;;;;5.56;46.76;99454.70;79327;1295;3011724;-62
2024/03/09 09:15:19;;;;;;;42.10;19.60;;;;;;;5.68;46.74;99461.53;78181;1300;3058643;-61
2024/03/09 09:17:45;;;;;;;48.10;21.20;;;;;;;5.79;46.70;99455.71;79419;1295;3011535;-62
2024/03/09 09:20:12;;;;;;;47.50;20.30;;;;;;;5.92;46.58;99456.04;79825;1295;3011887;-62
2024/03/09 09:22:43;;;;;;;41.80;19.90;;;;;;;5.95;46.19;99460.98;78264;1301;3052135;-62
2024/03/09 09:25:13;;;;;;;38.80;18.80;;;;;;;5.98;46.19;99461.53;80083;1295;3011998;-60
2024/03/09 09:27:43;;;;;;;49.20;19.30;;;;;;;6.01;46.18;99455.33;77912;1296;3430872;-61
2024/03/09 09:30:09;;;;;;;45.40;19.40;;;;;;;6.08;46.30;99461.48;79737;1295;3013614;-59
2024/03/09 09:32:38;;;;;;;43.00;21.50;;;;;;;6.20;45.91;99460.27;79474;1295;3011912;-61
2024/03/09 09:35:06;;;;;;;47.40;21.90;;;;;;;6.31;45.68;99461.36;78571;1300;3054164;-60
2024/03/09 09:37:33;;;;;;;43.30;21.00;;;;;;;6.26;45.76;99463.69;80048;1302;3013354;-60
2024/03/09 09:40:02;;;;;;;44.90;22.30;;;;;;;6.48;45.55;99456.45;79883;1295;3011585;-62
2024/03/09 09:42:31;;;;;;;46.10;22.50;;;;;;;6.61;45.22;99458.33;78553;1295;3068993;-61
2024/03/09 09:44:57;;;;;;;47.90;22.40;;;;;;;6.78;44.91;99463.86;79705;1295;3013026;-58
2024/03/09 09:47:29;;;;;;;45.80;19.70;;;;;;;6.76;44.30;99461.50;80193;1295;3011811;-61
2024/03/09 09:49:57;;;;;;;40.60;19.30;;;;;;;6.72;44.15;99460.29;78318;1298;3053435;-63
2024/03/09 09:52:24;;;;;;;50.10;20.60;;;;;;;6.98;44.15;99452.31;79834;1298;3013428;-62
2024/03/09 09:55:00;;;;;;;47.60;20.80;;;;;;;7.18;43.57;99452.80;79569;1300;3011598;-60
2024/03/09 09:57:30;;;;;;;44.50;19.90;;;;;;;7.27;43.11;99454.48;78140;1300;3069071;-62
2024/03/09 09:59:56;;;;;;;37.70;17.70;;;;;;;7.21;43.12;99456.31;79392;1300;3013457;-60
2024/03/09 10:02:24;;;;;;;36.20;16.90;;;;;;;7.18;42.83;99458.02;79489;1295;3011884;-61
2024/03/09 10:04:53;;;;;;;35.00;16.40;;;;;;;7.28;42.90;99460.02;78469;1296;3053470;-60
2024/03/09 10:07:20;;;;;;;29.90;14.10;;;;;;;7.59;42.54;99458.55;79604;1301;3012562;-61
2024/03/09 10:09:49;;;;;;;28.80;13.30;;;;;;;7.55;41.18;99456.46;79962;1298;3011706;-62
2024/03/09 10:12:23;;;;;;;38.70;13.10;;;;;;;7.22;41.71;99458.86;78740;1300;3067823;-59
2024/03/09 10:14:51;;;;;;;25.30;12.70;;;;;;;7.51;41.50;99455.23;79671;1296;3011880;-60
2024/03/09 10:17:19;;;;;;;32.70;12.90;;;;;;;7.65;41.33;99453.51;78389;1301;3056241;-62
2024/03/09 10:19:48;;;;;;;30.90;12.30;;;;;;;7.53;40.90;99458.84;79525;1295;3012617;-60
2024/03/09 10:22:16;;;;;;;28.80;12.60;;;;;;;7.43;40.99;99457.03;79628;1296;3012854;-62
2024/03/09 10:25:03;;;;;;;25.50;13.20;;;;;;;7.18;41.16;99456.30;78339;1298;3052136;-61
2024/03/09 10:27:31;;;;;;;27.50;12.80;;;;;;;7.31;41.15;99458.48;79126;1301;3051970;-61
2024/03/09 10:30:17;;;;;;;26.20;13.10;;;;;;;7.22;41.13;99455.92;79705;1301;3012885;-62
2024/03/09 10:32:45;;;;;;;24.60;12.60;;;;;;;7.37;40.87;99451.57;78643;1294;3057151;-58
2024/03/09 10:35:12;;;;;;;21.30;11.60;;;;;;;7.44;40.32;99450.52;79996;1295;3013104;-60
2024/03/09 10:37:39;;;;;;;25.10;12.20;;;;;;;7.56;40.32;99445.95;79590;1295;3011901;-62
2024/03/09 10:40:14;;;;;;;21.10;11.50;;;;;;;7.64;40.15;99447.83;78063;1298;3028229;-60
2024/03/09 10:42:46;;;;;;;24.90;12.20;;;;;;;7.83;39.80;99439.22;79129;1295;3011657;-60
2024/03/09 10:45:15;;;;;;;24.00;12.90;;;;;;;8.12;39.74;99436.55;80167;1298;3011778;-63
2024/03/09 10:47:53;;;;;;;23.50;12.50;;;;;;;8.26;39.35;99437.41;78634;1298;3068930;-62
2024/03/09 10:50:31;;;;;;;27.10;12.70;;;;;;;8.56;39.21;99435.18;78469;1295;3050923;-60
2024/03/09 10:53:08;;;;;;;32.80;13.00;;;;;;;8.61;38.47;99432.48;78208;1295;3056483;-64
2024/03/09 10:56:06;;;;;;;28.40;12.50;;;;;;;8.66;38.72;99427.83;78089;1300;3050516;-62
2024/03/09 10:58:34;;;;;;;26.50;11.80;;;;;;;8.92;38.28;99428.96;78628;1299;3053579;-63
2024/03/09 11:01:00;;;;;;;31.10;13.50;;;;;;;8.96;38.18;99429.55;79657;1301;3012844;-63
2024/03/09 11:03:30;;;;;;;28.30;12.40;;;;;;;8.88;38.42;99423.53;79393;1300;3011870;-64
2024/03/09 11:05:58;;;;;;;24.00;13.10;;;;;;;8.97;38.34;99431.41;78390;1299;3068256;-60
2024/03/09 11:08:25;;;;;;;25.40;12.30;;;;;;;8.89;38.37;99431.86;79438;1295;3013286;-61
2024/03/09 11:10:52;;;;;;;29.80;12.10;;;;;;;9.07;38.64;99431.09;79564;1295;3011967;-65
2024/03/09 11:13:20;;;;;;;22.40;11.80;;;;;;;9.14;38.02;99431.36;78157;1298;3054278;-60
2024/03/09 11:15:51;;;;;;;22.70;12.10;;;;;;;9.25;37.95;99433.43;79575;1295;3020481;-61